Terminal Aerodrome Forecast
Issued by NWS Jacksonville, FL

Home | Current Version | Previous Version | Text Only | Print | Product List | Glossary On
Versions: 1 2 3 4 5 6 7 8 9 10 11 12 13 14 15 16 17 18 19 20
258
FTUS42 KJAX 060641 AAA
TAFGNV
TAF AMD
KGNV 060641Z 0607/0706 17007KT 6SM -RA BKN040 OVC100 WS020/22040KT
      TEMPO 0607/0610 3SM TSRA BKN025 OVC040CB
     FM061000 19010KT 5SM -SHRA BKN030 OVC050 WS020/23040KT
      TEMPO 0610/0614 2SM TSRA BKN015 OVC030CB
     FM061400 21016G23KT 5SM SHRA OVC025
      TEMPO 0614/0617 2SM TSRA OVC015CB
     FM061700 23018G27KT P6SM SCT035
     FM062300 24008KT P6SM SKC=

USA.gov is the U.S. government's official web portal to all federal, state and local government web resources and services.